Madurai Airport
VOMD : now visible

Airfield :











YOU CAN JOIN US ON...

 
LOGIN :

Register | Disclaimer

   EN    FR    IT 

 









Legend :    VFR   Marginal VFR   IFR   Intensive IFR   Very Intensive IFR
Visi :
Ceiling :
>= 8 km
>= 3000ft
5 to 8 km
1000 to 3000 ft
1500m to 5 km
500 to 1000 ft
800 to 1500m
200 to 500 ft
< 800m
< 200 ft
Symbols :   Thunderstorms  Fog  Heavy snow  Heavy precipitations  Wind > 20 kt






- Airport Elevation : 459 ft
- IATA code : IXM


VOMD - Madurai

CURRENT METAR :
  • 141330Z 33004KT 6000 SCT016 BKN100 25/24 Q1014 NOSIG

EXPIRED METARs :
  • 141300Z 31003KT 6000 FEW010 SCT016 BKN100 25/24 Q1013 NOSIG
  • 141230Z 33004KT 6000 FEW010 SCT016 FEW025CB BKN100 25/24 Q1013 NOSIG
  • 141200Z 34005KT 6000 FEW010 SCT016 FEW025CB BKN100 26/24 Q1013 NOSIG
  • 141130Z 30004KT 6000 SCT016 FEW025CB BKN100 26/23 Q1012 NOSIG
  • 141100Z 32003KT 6000 SCT016 FEW025CB BKN100 26/23 Q1012 NOSIG

TAF TAF VOMD
Valid from the 14 at 12:00 until the 15 at 18:00 UTC


141100Z 1412/1518 05010KT 4000 -DZ/BR SCT018 BKN100
TEMPO 1412/1418 3000 TSRA/RA SCT015 FEW025TCU/CB BKN080
BECMG 1421/1422 36005KT 3000 -RA/BR
BECMG 1504/1505 05010KT 5000 BR/HZ
TEMPO 1506/1512 SCT018 FEW025TCU/CB BKN080



MET'MAP, your aeronautical weather chart ! - Copyright ORBIFLY December 2007 - Disclaimer

ORBIFLY MET'MAP TEAM :

Programming & Development : Alexandra Zaïnal
Concept & original design : Baudouin d'Aumeries
Assistance for programming : Marc-Olivier Méhu
Technical & hardware support : Manuel Goepfert

Contact : metmap@orbifly.com




SOURCES & CREDITS :

   NOAA       Earth
Advisory